sensor_id;sensor_type;location;lat;lon;timestamp;temperature;humidity
36790;DHT22;22740;52.182;8.780;2023-02-28T00:01:52;-0.60;99.90
36790;DHT22;22740;52.182;8.780;2023-02-28T00:07:54;-0.80;99.90
36790;DHT22;22740;52.182;8.780;2023-02-28T00:13:56;-0.90;99.90
36790;DHT22;22740;52.182;8.780;2023-02-28T00:19:58;-0.80;99.90
36790;DHT22;22740;52.182;8.780;2023-02-28T00:26:04;-0.90;99.90
36790;DHT22;22740;52.182;8.780;2023-02-28T00:32:07;-1.00;99.90
36790;DHT22;22740;52.182;8.780;2023-02-28T00:38:09;-1.00;99.90
36790;DHT22;22740;52.182;8.780;2023-02-28T00:44:11;-0.90;99.90
36790;DHT22;22740;52.182;8.780;2023-02-28T00:50:13;-0.90;99.90
36790;DHT22;22740;52.182;8.780;2023-02-28T00:56:14;-0.90;99.90
36790;DHT22;22740;52.182;8.780;2023-02-28T01:02:16;-0.90;99.90
36790;DHT22;22740;52.182;8.780;2023-02-28T01:08:20;-0.80;99.90
36790;DHT22;22740;52.182;8.780;2023-02-28T01:14:22;-0.80;99.90
36790;DHT22;22740;52.182;8.780;2023-02-28T01:20:24;-0.70;99.90
36790;DHT22;22740;52.182;8.780;2023-02-28T01:26:26;-0.60;99.90
36790;DHT22;22740;52.182;8.780;2023-02-28T01:32:28;-0.60;99.90
36790;DHT22;22740;52.182;8.780;2023-02-28T01:38:30;-0.70;99.90
36790;DHT22;22740;52.182;8.780;2023-02-28T01:51:02;-0.90;99.90
36790;DHT22;22740;52.182;8.780;2023-02-28T01:57:11;-1.00;99.90
36790;DHT22;22740;52.182;8.780;2023-02-28T02:03:17;-1.10;99.90
36790;DHT22;22740;52.182;8.780;2023-02-28T02:09:21;-1.10;99.90
36790;DHT22;22740;52.182;8.780;2023-02-28T02:15:44;-1.10;99.90
36790;DHT22;22740;52.182;8.780;2023-02-28T02:40:43;-1.00;99.90
36790;DHT22;22740;52.182;8.780;2023-02-28T02:46:49;-1.00;99.90
36790;DHT22;22740;52.182;8.780;2023-02-28T02:52:55;-1.10;99.90
36790;DHT22;22740;52.182;8.780;2023-02-28T02:59:04;-1.10;99.90
36790;DHT22;22740;52.182;8.780;2023-02-28T03:05:14;-1.10;99.90
36790;DHT22;22740;52.182;8.780;2023-02-28T03:11:18;-1.10;99.90
36790;DHT22;22740;52.182;8.780;2023-02-28T03:17:44;-1.20;99.90
36790;DHT22;22740;52.182;8.780;2023-02-28T03:30:28;-1.30;99.90
36790;DHT22;22740;52.182;8.780;2023-02-28T03:36:41;-1.40;99.90
36790;DHT22;22740;52.182;8.780;2023-02-28T03:42:50;-1.50;99.90
36790;DHT22;22740;52.182;8.780;2023-02-28T03:49:06;-1.50;99.90
36790;DHT22;22740;52.182;8.780;2023-02-28T03:55:10;-1.60;99.90
36790;DHT22;22740;52.182;8.780;2023-02-28T04:01:49;-1.70;99.90
36790;DHT22;22740;52.182;8.780;2023-02-28T04:07:52;-1.70;99.90
36790;DHT22;22740;52.182;8.780;2023-02-28T04:13:55;-1.80;99.90
36790;DHT22;22740;52.182;8.780;2023-02-28T04:19:57;-1.90;99.90
36790;DHT22;22740;52.182;8.780;2023-02-28T04:25:59;-1.90;99.90
36790;DHT22;22740;52.182;8.780;2023-02-28T04:32:02;-1.90;99.90
36790;DHT22;22740;52.182;8.780;2023-02-28T04:38:04;-1.90;99.90
36790;DHT22;22740;52.182;8.780;2023-02-28T04:44:06;-2.00;99.90
36790;DHT22;22740;52.182;8.780;2023-02-28T04:50:08;-2.00;99.90
36790;DHT22;22740;52.182;8.780;2023-02-28T04:56:12;-2.10;99.90
36790;DHT22;22740;52.182;8.780;2023-02-28T05:02:15;-2.20;99.90
36790;DHT22;22740;52.182;8.780;2023-02-28T05:08:17;-2.20;99.90
36790;DHT22;22740;52.182;8.780;2023-02-28T05:14:18;-2.30;99.90
36790;DHT22;22740;52.182;8.780;2023-02-28T05:20:20;-2.30;99.90
36790;DHT22;22740;52.182;8.780;2023-02-28T05:26:23;-2.40;99.90
36790;DHT22;22740;52.182;8.780;2023-02-28T05:32:25;-2.40;99.90
36790;DHT22;22740;52.182;8.780;2023-02-28T05:38:27;-2.40;99.90
36790;DHT22;22740;52.182;8.780;2023-02-28T05:44:29;-2.50;99.90
36790;DHT22;22740;52.182;8.780;2023-02-28T05:50:31;-2.50;99.90
36790;DHT22;22740;52.182;8.780;2023-02-28T05:56:33;-2.50;99.90
36790;DHT22;22740;52.182;8.780;2023-02-28T06:02:40;-2.40;99.90
36790;DHT22;22740;52.182;8.780;2023-02-28T06:08:43;-2.50;99.90
36790;DHT22;22740;52.182;8.780;2023-02-28T06:14:46;-2.50;99.90
36790;DHT22;22740;52.182;8.780;2023-02-28T06:20:56;-2.60;99.90
36790;DHT22;22740;52.182;8.780;2023-02-28T06:26:58;-2.60;99.90
36790;DHT22;22740;52.182;8.780;2023-02-28T06:33:06;-2.50;99.90
36790;DHT22;22740;52.182;8.780;2023-02-28T06:39:09;-2.50;99.90
36790;DHT22;22740;52.182;8.780;2023-02-28T06:45:11;-2.40;99.90
36790;DHT22;22740;52.182;8.780;2023-02-28T06:51:15;-2.30;99.90
36790;DHT22;22740;52.182;8.780;2023-02-28T06:57:17;-2.20;99.90
36790;DHT22;22740;52.182;8.780;2023-02-28T07:03:19;-2.00;99.90
36790;DHT22;22740;52.182;8.780;2023-02-28T07:09:21;-1.70;99.90
36790;DHT22;22740;52.182;8.780;2023-02-28T07:15:23;-1.60;99.90
36790;DHT22;22740;52.182;8.780;2023-02-28T07:21:25;-1.40;99.90
36790;DHT22;22740;52.182;8.780;2023-02-28T07:27:27;-1.10;99.90
36790;DHT22;22740;52.182;8.780;2023-02-28T07:33:28;-0.90;99.90
36790;DHT22;22740;52.182;8.780;2023-02-28T07:39:30;-0.70;99.90
36790;DHT22;22740;52.182;8.780;2023-02-28T07:45:32;-0.40;99.90
36790;DHT22;22740;52.182;8.780;2023-02-28T07:51:36;-0.10;99.90
36790;DHT22;22740;52.182;8.780;2023-02-28T07:57:37;0.30;99.90
36790;DHT22;22740;52.182;8.780;2023-02-28T08:03:40;0.70;99.90
36790;DHT22;22740;52.182;8.780;2023-02-28T08:09:42;1.00;99.90
36790;DHT22;22740;52.182;8.780;2023-02-28T08:15:44;1.60;99.90
36790;DHT22;22740;52.182;8.780;2023-02-28T08:21:47;1.80;99.90
36790;DHT22;22740;52.182;8.780;2023-02-28T08:27:51;2.00;99.90
36790;DHT22;22740;52.182;8.780;2023-02-28T08:33:53;2.20;99.90
36790;DHT22;22740;52.182;8.780;2023-02-28T08:39:58;2.30;99.90
36790;DHT22;22740;52.182;8.780;2023-02-28T08:46:00;2.20;99.90
36790;DHT22;22740;52.182;8.780;2023-02-28T08:52:02;2.60;99.90
36790;DHT22;22740;52.182;8.780;2023-02-28T08:58:04;2.60;99.90
36790;DHT22;22740;52.182;8.780;2023-02-28T09:04:06;2.80;99.90
36790;DHT22;22740;52.182;8.780;2023-02-28T09:10:10;2.80;99.90
36790;DHT22;22740;52.182;8.780;2023-02-28T09:16:14;2.90;99.90
36790;DHT22;22740;52.182;8.780;2023-02-28T09:22:17;3.00;99.90
36790;DHT22;22740;52.182;8.780;2023-02-28T09:28:19;2.90;99.90
36790;DHT22;22740;52.182;8.780;2023-02-28T09:34:21;2.90;99.90
36790;DHT22;22740;52.182;8.780;2023-02-28T09:40:25;3.30;99.90
36790;DHT22;22740;52.182;8.780;2023-02-28T09:46:33;3.50;99.90
36790;DHT22;22740;52.182;8.780;2023-02-28T09:52:36;3.50;99.90
36790;DHT22;22740;52.182;8.780;2023-02-28T10:05:02;3.60;99.90
36790;DHT22;22740;52.182;8.780;2023-02-28T10:11:09;3.80;99.90
36790;DHT22;22740;52.182;8.780;2023-02-28T10:17:26;3.90;99.90
36790;DHT22;22740;52.182;8.780;2023-02-28T10:23:32;4.00;99.90
36790;DHT22;22740;52.182;8.780;2023-02-28T10:29:36;4.10;99.90
36790;DHT22;22740;52.182;8.780;2023-02-28T10:35:38;4.00;99.90
36790;DHT22;22740;52.182;8.780;2023-02-28T10:41:42;4.30;99.90
36790;DHT22;22740;52.182;8.780;2023-02-28T10:53:58;4.50;99.90
36790;DHT22;22740;52.182;8.780;2023-02-28T11:00:32;4.70;99.90
36790;DHT22;22740;52.182;8.780;2023-02-28T11:06:35;4.80;99.90
36790;DHT22;22740;52.182;8.780;2023-02-28T11:12:38;5.10;99.90
36790;DHT22;22740;52.182;8.780;2023-02-28T11:18:54;5.20;99.90
36790;DHT22;22740;52.182;8.780;2023-02-28T11:25:00;5.00;99.90
36790;DHT22;22740;52.182;8.780;2023-02-28T11:31:04;4.20;99.90
36790;DHT22;22740;52.182;8.780;2023-02-28T11:37:13;4.80;99.90
36790;DHT22;22740;52.182;8.780;2023-02-28T11:56:41;4.60;99.90
36790;DHT22;22740;52.182;8.780;2023-02-28T12:28:47;5.70;99.90
36790;DHT22;22740;52.182;8.780;2023-02-28T12:34:56;5.40;99.90
36790;DHT22;22740;52.182;8.780;2023-02-28T12:41:14;5.60;99.90
36790;DHT22;22740;52.182;8.780;2023-02-28T12:47:18;5.50;99.90
36790;DHT22;22740;52.182;8.780;2023-02-28T12:53:28;5.40;99.90
36790;DHT22;22740;52.182;8.780;2023-02-28T12:59:38;5.30;99.90
36790;DHT22;22740;52.182;8.780;2023-02-28T13:11:53;5.10;99.90
36790;DHT22;22740;52.182;8.780;2023-02-28T13:17:59;5.10;99.90
36790;DHT22;22740;52.182;8.780;2023-02-28T13:24:03;5.10;99.90
36790;DHT22;22740;52.182;8.780;2023-02-28T13:57:19;5.10;99.90
36790;DHT22;22740;52.182;8.780;2023-02-28T14:09:31;5.10;99.90
36790;DHT22;22740;52.182;8.780;2023-02-28T14:15:45;4.90;99.90
36790;DHT22;22740;52.182;8.780;2023-02-28T14:22:20;4.90;99.90
36790;DHT22;22740;52.182;8.780;2023-02-28T14:41:06;4.70;99.90
36790;DHT22;22740;52.182;8.780;2023-02-28T14:47:15;4.80;99.90
36790;DHT22;22740;52.182;8.780;2023-02-28T14:53:20;4.80;99.90
36790;DHT22;22740;52.182;8.780;2023-02-28T14:59:23;4.70;99.90
36790;DHT22;22740;52.182;8.780;2023-02-28T15:05:32;4.70;99.90
36790;DHT22;22740;52.182;8.780;2023-02-28T15:11:35;4.60;99.90
36790;DHT22;22740;52.182;8.780;2023-02-28T15:17:37;4.60;99.90
36790;DHT22;22740;52.182;8.780;2023-02-28T15:23:41;4.70;99.90
36790;DHT22;22740;52.182;8.780;2023-02-28T15:29:50;4.60;99.90
36790;DHT22;22740;52.182;8.780;2023-02-28T15:36:15;4.50;99.90
36790;DHT22;22740;52.182;8.780;2023-02-28T15:42:21;4.50;99.90
36790;DHT22;22740;52.182;8.780;2023-02-28T15:48:30;4.40;99.90
36790;DHT22;22740;52.182;8.780;2023-02-28T15:54:34;4.40;99.90
36790;DHT22;22740;52.182;8.780;2023-02-28T16:00:36;4.30;99.90
36790;DHT22;22740;52.182;8.780;2023-02-28T16:06:39;4.20;99.90
36790;DHT22;22740;52.182;8.780;2023-02-28T16:12:42;4.20;99.90
36790;DHT22;22740;52.182;8.780;2023-02-28T16:18:45;4.10;99.90
36790;DHT22;22740;52.182;8.780;2023-02-28T16:24:46;4.00;99.90
36790;DHT22;22740;52.182;8.780;2023-02-28T16:30:51;3.70;99.90
36790;DHT22;22740;52.182;8.780;2023-02-28T16:36:53;3.60;99.90
36790;DHT22;22740;52.182;8.780;2023-02-28T16:42:58;3.60;99.90
36790;DHT22;22740;52.182;8.780;2023-02-28T16:49:00;3.60;99.90
36790;DHT22;22740;52.182;8.780;2023-02-28T16:55:02;3.40;99.90
36790;DHT22;22740;52.182;8.780;2023-02-28T17:01:04;3.30;99.90
36790;DHT22;22740;52.182;8.780;2023-02-28T17:07:12;3.10;99.90
36790;DHT22;22740;52.182;8.780;2023-02-28T17:13:14;3.00;99.90
36790;DHT22;22740;52.182;8.780;2023-02-28T17:19:16;2.80;99.90
36790;DHT22;22740;52.182;8.780;2023-02-28T17:25:19;2.70;99.90
36790;DHT22;22740;52.182;8.780;2023-02-28T17:31:25;2.60;99.90
36790;DHT22;22740;52.182;8.780;2023-02-28T17:37:27;2.50;99.90
36790;DHT22;22740;52.182;8.780;2023-02-28T17:43:29;2.60;99.90
36790;DHT22;22740;52.182;8.780;2023-02-28T17:49:31;2.60;99.90
36790;DHT22;22740;52.182;8.780;2023-02-28T17:55:35;2.50;99.90
36790;DHT22;22740;52.182;8.780;2023-02-28T18:01:37;2.50;99.90
36790;DHT22;22740;52.182;8.780;2023-02-28T18:07:39;2.50;99.90
36790;DHT22;22740;52.182;8.780;2023-02-28T18:13:50;2.30;99.90
36790;DHT22;22740;52.182;8.780;2023-02-28T18:19:52;2.30;99.90
36790;DHT22;22740;52.182;8.780;2023-02-28T18:25:54;2.10;99.90
36790;DHT22;22740;52.182;8.780;2023-02-28T18:31:56;2.10;99.90
36790;DHT22;22740;52.182;8.780;2023-02-28T18:37:58;2.10;99.90
36790;DHT22;22740;52.182;8.780;2023-02-28T18:44:00;1.80;99.90
36790;DHT22;22740;52.182;8.780;2023-02-28T18:50:14;1.50;99.90
36790;DHT22;22740;52.182;8.780;2023-02-28T18:56:18;1.40;99.90
36790;DHT22;22740;52.182;8.780;2023-02-28T19:02:20;1.20;99.90
36790;DHT22;22740;52.182;8.780;2023-02-28T19:08:23;1.00;99.90
36790;DHT22;22740;52.182;8.780;2023-02-28T19:14:25;0.90;99.90
36790;DHT22;22740;52.182;8.780;2023-02-28T19:20:27;0.90;99.90
36790;DHT22;22740;52.182;8.780;2023-02-28T19:26:28;0.70;99.90
36790;DHT22;22740;52.182;8.780;2023-02-28T19:32:31;0.50;99.90
36790;DHT22;22740;52.182;8.780;2023-02-28T19:38:33;0.50;99.90
36790;DHT22;22740;52.182;8.780;2023-02-28T19:44:34;0.30;99.90
36790;DHT22;22740;52.182;8.780;2023-02-28T19:50:37;0.20;99.90
36790;DHT22;22740;52.182;8.780;2023-02-28T19:56:38;0.20;99.90
36790;DHT22;22740;52.182;8.780;2023-02-28T20:02:41;0.20;99.90
36790;DHT22;22740;52.182;8.780;2023-02-28T20:08:44;0.20;99.90
36790;DHT22;22740;52.182;8.780;2023-02-28T20:14:46;0.20;99.90
36790;DHT22;22740;52.182;8.780;2023-02-28T20:20:48;0.20;99.90
36790;DHT22;22740;52.182;8.780;2023-02-28T20:26:50;0.00;99.90
36790;DHT22;22740;52.182;8.780;2023-02-28T20:32:53;0.00;99.90
36790;DHT22;22740;52.182;8.780;2023-02-28T20:38:55;-0.20;99.90
36790;DHT22;22740;52.182;8.780;2023-02-28T20:44:57;-0.40;99.90
36790;DHT22;22740;52.182;8.780;2023-02-28T20:50:59;-0.50;99.90
36790;DHT22;22740;52.182;8.780;2023-02-28T20:57:01;-0.40;99.90
36790;DHT22;22740;52.182;8.780;2023-02-28T21:03:03;-0.30;99.90
36790;DHT22;22740;52.182;8.780;2023-02-28T21:09:06;-0.40;99.90
36790;DHT22;22740;52.182;8.780;2023-02-28T21:15:09;-0.30;99.90
36790;DHT22;22740;52.182;8.780;2023-02-28T21:21:13;-0.30;99.90
36790;DHT22;22740;52.182;8.780;2023-02-28T21:27:15;-0.40;99.90
36790;DHT22;22740;52.182;8.780;2023-02-28T21:33:17;-0.60;99.90
36790;DHT22;22740;52.182;8.780;2023-02-28T21:39:21;-0.60;99.90
36790;DHT22;22740;52.182;8.780;2023-02-28T21:45:26;-0.60;99.90
36790;DHT22;22740;52.182;8.780;2023-02-28T21:51:30;-0.60;99.90
36790;DHT22;22740;52.182;8.780;2023-02-28T21:57:32;-0.40;99.90
36790;DHT22;22740;52.182;8.780;2023-02-28T22:03:37;-0.30;99.90
36790;DHT22;22740;52.182;8.780;2023-02-28T22:09:38;-0.50;99.90
36790;DHT22;22740;52.182;8.780;2023-02-28T22:15:40;-0.60;99.90
36790;DHT22;22740;52.182;8.780;2023-02-28T22:21:42;-0.40;99.90
36790;DHT22;22740;52.182;8.780;2023-02-28T22:27:45;-0.70;99.90
36790;DHT22;22740;52.182;8.780;2023-02-28T22:33:48;-0.70;99.90
36790;DHT22;22740;52.182;8.780;2023-02-28T22:39:50;-0.80;99.90
36790;DHT22;22740;52.182;8.780;2023-02-28T22:45:52;-0.70;99.90
36790;DHT22;22740;52.182;8.780;2023-02-28T22:51:54;-0.80;99.90
36790;DHT22;22740;52.182;8.780;2023-02-28T22:57:56;-0.70;99.90
36790;DHT22;22740;52.182;8.780;2023-02-28T23:03:59;-0.70;99.90
36790;DHT22;22740;52.182;8.780;2023-02-28T23:10:07;-0.80;99.90
36790;DHT22;22740;52.182;8.780;2023-02-28T23:16:09;-1.00;99.90
36790;DHT22;22740;52.182;8.780;2023-02-28T23:22:11;-1.10;99.90
36790;DHT22;22740;52.182;8.780;2023-02-28T23:28:13;-1.20;99.90
36790;DHT22;22740;52.182;8.780;2023-02-28T23:34:15;-1.20;99.90
36790;DHT22;22740;52.182;8.780;2023-02-28T23:40:18;-1.20;99.90
36790;DHT22;22740;52.182;8.780;2023-02-28T23:46:20;-1.30;99.90
36790;DHT22;22740;52.182;8.780;2023-02-28T23:52:22;-1.50;99.90
36790;DHT22;22740;52.182;8.780;2023-02-28T23:58:24;-1.50;99.90
